METAR Formatted Surface Weather Observation
Issued by NWS Charleston, WV

Home | Current Version | Previous Version | Text Only | Print | Product List | Glossary On
Versions: 1
000
SAUS41 KRLX 300457 COR
MTRBKW
METAR KBKW 300451Z AUTO 13011KT 10SM SCT080 21/18 A3022 RMK AO2
SLP200 T02060178 402780156 TSNO



USA.gov is the U.S. government's official web portal to all federal, state and local government web resources and services.